createdAt,value
2019-01-24T00:01:20.956Z,-3.00
2019-01-24T00:03:49.720Z,-3.00
2019-01-24T00:06:18.419Z,-3.10
2019-01-24T00:08:47.104Z,-3.10
2019-01-24T00:11:15.792Z,-3.10
2019-01-24T00:13:44.460Z,-3.10
2019-01-24T00:16:13.232Z,-3.10
2019-01-24T00:18:42.211Z,-3.10
2019-01-24T00:21:10.925Z,-3.10
2019-01-24T00:23:58.863Z,-3.10
2019-01-24T00:26:28.274Z,-3.10
2019-01-24T00:28:56.943Z,-3.00
2019-01-24T00:31:26.211Z,-3.10
2019-01-24T00:33:55.164Z,-3.10
2019-01-24T00:36:24.005Z,-3.10
2019-01-24T00:38:52.762Z,-3.10
2019-01-24T00:41:21.892Z,-3.10
2019-01-24T00:43:50.823Z,-3.10
2019-01-24T00:46:19.600Z,-3.20
2019-01-24T00:48:48.327Z,-3.20
2019-01-24T00:51:17.109Z,-3.20
2019-01-24T00:53:46.167Z,-3.20
2019-01-24T00:56:14.876Z,-3.20
2019-01-24T00:58:43.884Z,-3.20
2019-01-24T01:01:12.634Z,-3.20
2019-01-24T01:03:41.574Z,-3.20
2019-01-24T01:06:11.057Z,-3.10
2019-01-24T01:08:41.334Z,-3.20
2019-01-24T01:11:10.900Z,-3.10
2019-01-24T01:13:39.648Z,-3.10
2019-01-24T01:16:08.966Z,-3.10
2019-01-24T01:18:37.806Z,-3.20
2019-01-24T01:21:06.604Z,-3.10
2019-01-24T01:23:35.619Z,-3.10
2019-01-24T01:26:04.583Z,-3.10
2019-01-24T01:28:33.332Z,-3.10
2019-01-24T01:31:02.078Z,-3.10
2019-01-24T01:33:31.123Z,-3.10
2019-01-24T01:36:00.187Z,-3.10
2019-01-24T01:38:28.890Z,-3.00
2019-01-24T01:40:57.854Z,-3.00
2019-01-24T01:43:26.567Z,-3.10
2019-01-24T01:45:55.784Z,-3.10
2019-01-24T01:48:24.859Z,-3.10
2019-01-24T01:50:53.781Z,-3.10
2019-01-24T01:53:22.564Z,-3.10
2019-01-24T01:55:51.488Z,-3.10
2019-01-24T01:58:21.146Z,-3.10
2019-01-24T02:00:50.425Z,-3.00
2019-01-24T02:03:19.265Z,-3.10
2019-01-24T02:05:48.727Z,-3.00
2019-01-24T02:08:17.737Z,-3.00
2019-01-24T02:10:46.580Z,-3.00
2019-01-24T02:13:17.283Z,-3.10
2019-01-24T02:15:46.114Z,-3.10
2019-01-24T02:18:15.240Z,-3.10
2019-01-24T02:20:44.251Z,-3.10
2019-01-24T02:23:13.281Z,-3.10
2019-01-24T02:25:42.096Z,-3.00
2019-01-24T02:28:11.431Z,-3.10
2019-01-24T02:30:40.257Z,-3.10
2019-01-24T02:33:09.008Z,-3.00
2019-01-24T02:35:38.235Z,-3.00
2019-01-24T02:38:07.612Z,-3.00
2019-01-24T02:40:36.419Z,-3.00
2019-01-24T02:43:05.542Z,-3.00
2019-01-24T02:45:34.398Z,-3.00
2019-01-24T02:48:03.151Z,-3.10
2019-01-24T02:50:32.381Z,-3.10
2019-01-24T02:53:01.155Z,-3.00
2019-01-24T02:55:31.751Z,-3.00
2019-01-24T02:58:00.429Z,-3.00
2019-01-24T03:00:29.205Z,-3.00
2019-01-24T03:02:58.236Z,-3.10
2019-01-24T03:05:27.022Z,-3.00
2019-01-24T03:07:55.843Z,-3.00
2019-01-24T03:10:24.519Z,-3.10
2019-01-24T03:12:53.522Z,-3.10
2019-01-24T03:15:22.973Z,-3.00
2019-01-24T03:17:52.425Z,-3.10
2019-01-24T03:20:21.299Z,-3.00
2019-01-24T03:22:50.053Z,-3.00
2019-01-24T03:25:19.552Z,-3.00
2019-01-24T03:27:48.631Z,-3.00
2019-01-24T03:30:19.682Z,-3.00
2019-01-24T03:32:49.476Z,-3.00
2019-01-24T03:35:20.807Z,-3.00
2019-01-24T03:37:49.526Z,-3.00
2019-01-24T03:40:18.702Z,-3.00
2019-01-24T03:42:47.730Z,-3.10
2019-01-24T03:45:16.891Z,-3.10
2019-01-24T03:47:46.099Z,-3.10
2019-01-24T03:50:17.033Z,-3.10
2019-01-24T03:52:46.347Z,-3.10
2019-01-24T03:55:16.661Z,-3.10
2019-01-24T03:57:45.491Z,-3.10
2019-01-24T04:00:19.680Z,-3.10
2019-01-24T04:02:51.216Z,-3.10
2019-01-24T04:05:20.302Z,-3.10
2019-01-24T04:07:49.098Z,-3.10
2019-01-24T04:10:19.734Z,-3.10
2019-01-24T04:12:48.575Z,-3.10
2019-01-24T04:15:19.767Z,-3.10
2019-01-24T04:17:48.834Z,-3.10
2019-01-24T04:20:17.857Z,-3.20
2019-01-24T04:22:46.799Z,-3.10
2019-01-24T04:25:15.714Z,-3.10
2019-01-24T04:27:44.463Z,-3.10
2019-01-24T04:30:15.599Z,-3.10
2019-01-24T04:32:44.570Z,-3.10
2019-01-24T04:35:19.714Z,-3.10
2019-01-24T04:37:44.351Z,-3.10
2019-01-24T04:40:14.903Z,-3.20
2019-01-24T04:42:43.733Z,-3.20
2019-01-24T04:45:14.022Z,-3.20
2019-01-24T04:47:42.867Z,-3.10
2019-01-24T04:50:14.158Z,-3.10
2019-01-24T04:52:43.677Z,-3.10
2019-01-24T04:55:14.127Z,-3.20
2019-01-24T04:57:43.216Z,-3.20
2019-01-24T05:00:15.691Z,-3.20
2019-01-24T05:02:44.721Z,-3.10
2019-01-24T05:05:13.456Z,-3.10
2019-01-24T05:07:42.156Z,-3.20
2019-01-24T05:10:11.456Z,-3.20
2019-01-24T05:12:40.222Z,-3.20
2019-01-24T05:15:09.131Z,-3.30
2019-01-24T05:17:37.854Z,-3.30
2019-01-24T05:20:07.715Z,-3.30
2019-01-24T05:22:36.821Z,-3.40
2019-01-24T05:25:07.688Z,-3.40
2019-01-24T05:27:36.342Z,-3.40
2019-01-24T05:30:08.692Z,-3.40
2019-01-24T05:32:37.633Z,-3.40
2019-01-24T05:35:07.522Z,-3.40
2019-01-24T05:37:36.205Z,-3.40
2019-01-24T05:40:05.729Z,-3.40
2019-01-24T05:42:34.411Z,-3.40
2019-01-24T05:45:03.629Z,-3.40
2019-01-24T05:47:32.311Z,-3.40
2019-01-24T05:50:01.190Z,-3.50
2019-01-24T05:52:30.291Z,-3.50
2019-01-24T05:54:59.408Z,-3.50
2019-01-24T05:57:28.165Z,-3.50
2019-01-24T05:59:57.131Z,-3.50
2019-01-24T06:02:25.861Z,-3.60
2019-01-24T06:04:56.510Z,-3.60
2019-01-24T06:07:25.938Z,-3.50
2019-01-24T06:10:00.007Z,-3.60
2019-01-24T06:12:35.540Z,-3.60
2019-01-24T06:15:11.337Z,-3.60
2019-01-24T06:17:40.068Z,-3.50
2019-01-24T06:20:09.092Z,-3.50
2019-01-24T06:22:38.053Z,-3.50
2019-01-24T06:25:08.008Z,-3.50
2019-01-24T06:27:36.752Z,-3.50
2019-01-24T06:30:08.407Z,-3.50
2019-01-24T06:32:37.375Z,-3.50
2019-01-24T06:35:06.560Z,-3.50
2019-01-24T06:37:35.635Z,-3.40
2019-01-24T06:40:05.753Z,-3.40
2019-01-24T06:42:34.540Z,-3.40
2019-01-24T06:45:05.722Z,-3.30
2019-01-24T06:47:34.807Z,-3.40
2019-01-24T06:50:04.270Z,-3.40
2019-01-24T06:52:33.590Z,-3.40
2019-01-24T06:55:15.261Z,-3.40
2019-01-24T06:57:49.796Z,-3.40
2019-01-24T07:00:18.699Z,-3.40
2019-01-24T07:02:48.280Z,-3.40
2019-01-24T07:05:16.961Z,-3.40
2019-01-24T07:07:46.603Z,-3.40
2019-01-24T07:10:17.080Z,-3.40
2019-01-24T07:12:45.885Z,-3.50
2019-01-24T07:15:17.031Z,-3.50
2019-01-24T07:17:46.053Z,-3.50
2019-01-24T07:20:15.987Z,-3.50
2019-01-24T07:22:45.408Z,-3.50
2019-01-24T07:25:17.098Z,-3.50
2019-01-24T07:27:45.938Z,-3.60
2019-01-24T07:30:15.887Z,-3.60
2019-01-24T07:32:44.789Z,-3.60
2019-01-24T07:35:14.764Z,-3.70
2019-01-24T07:37:43.752Z,-3.70
2019-01-24T07:40:15.054Z,-3.60
2019-01-24T07:42:43.987Z,-3.60
2019-01-24T07:45:45.607Z,-3.60
2019-01-24T07:48:14.376Z,-3.60
2019-01-24T07:50:43.262Z,-3.60
2019-01-24T07:53:12.741Z,-3.60
2019-01-24T07:55:42.187Z,-3.50
2019-01-24T07:58:11.303Z,-3.60
2019-01-24T08:00:40.009Z,-3.60
2019-01-24T08:03:08.774Z,-3.60
2019-01-24T08:05:37.932Z,-3.60
2019-01-24T08:08:06.929Z,-3.60
2019-01-24T08:10:35.772Z,-3.60
2019-01-24T08:13:05.800Z,-3.70
2019-01-24T08:15:34.644Z,-3.60
2019-01-24T08:18:03.575Z,-3.60
2019-01-24T08:20:32.784Z,-3.60
2019-01-24T08:23:01.649Z,-3.50
2019-01-24T08:25:30.711Z,-3.50
2019-01-24T08:27:59.567Z,-3.40
2019-01-24T08:30:30.673Z,-3.40
2019-01-24T08:32:59.714Z,-3.50
2019-01-24T08:35:28.940Z,-3.40
2019-01-24T08:37:57.674Z,-3.50
2019-01-24T08:40:26.769Z,-3.50
2019-01-24T08:42:55.814Z,-3.50
2019-01-24T08:45:24.999Z,-3.50
2019-01-24T08:47:54.074Z,-3.50
2019-01-24T08:50:23.415Z,-3.50
2019-01-24T08:52:52.341Z,-3.40
2019-01-24T08:55:34.572Z,-3.50
2019-01-24T08:58:10.348Z,-3.40
2019-01-24T09:00:39.224Z,-3.40
2019-01-24T09:03:08.174Z,-3.40
2019-01-24T09:05:36.973Z,-3.40
2019-01-24T09:08:06.330Z,-3.40
2019-01-24T09:10:39.387Z,-3.30
2019-01-24T09:13:09.561Z,-3.40
2019-01-24T09:15:38.669Z,-3.40
2019-01-24T09:18:08.624Z,-3.40
2019-01-24T09:20:38.783Z,-3.30
2019-01-24T09:23:10.715Z,-3.30
2019-01-24T09:25:39.599Z,-3.30
2019-01-24T09:28:14.859Z,-3.30
2019-01-24T09:30:40.474Z,-3.20
2019-01-24T09:33:09.565Z,-3.20
2019-01-24T09:35:38.863Z,-3.20
2019-01-24T09:38:08.690Z,-3.10
2019-01-24T09:40:37.476Z,-3.10
2019-01-24T09:43:23.447Z,-3.20
2019-01-24T09:46:00.332Z,-3.40
2019-01-24T09:48:29.183Z,-3.40
2019-01-24T09:51:00.982Z,-3.40
2019-01-24T09:53:29.783Z,-3.30
2019-01-24T09:55:58.878Z,-3.20
2019-01-24T09:58:27.868Z,-3.30
2019-01-24T10:01:00.161Z,-3.20
2019-01-24T10:03:29.731Z,-3.10
2019-01-24T10:06:00.654Z,-3.20
2019-01-24T10:08:29.674Z,-3.20
2019-01-24T10:10:58.584Z,-3.40
2019-01-24T10:13:27.750Z,-3.30
2019-01-24T10:15:59.424Z,-3.40
2019-01-24T10:18:28.516Z,-3.50
2019-01-24T10:20:57.310Z,-3.40
2019-01-24T10:23:26.091Z,-3.30
2019-01-24T10:25:56.613Z,-3.30
2019-01-24T10:28:25.936Z,-3.40
2019-01-24T10:30:55.658Z,-3.50
2019-01-24T10:33:24.447Z,-3.50
2019-01-24T10:35:53.617Z,-3.50
2019-01-24T10:38:22.707Z,-3.50
2019-01-24T10:40:51.561Z,-3.50
2019-01-24T10:43:20.596Z,-3.60
2019-01-24T10:45:49.692Z,-3.60
2019-01-24T10:48:18.522Z,-3.60
2019-01-24T10:50:47.987Z,-3.60
2019-01-24T10:53:16.843Z,-3.60
2019-01-24T10:55:46.780Z,-3.80
2019-01-24T10:58:22.236Z,-4.00
2019-01-24T11:00:51.233Z,-4.00
2019-01-24T11:03:20.948Z,-4.00
2019-01-24T11:05:49.714Z,-3.90
2019-01-24T11:08:18.501Z,-4.10
2019-01-24T11:10:47.247Z,-4.10
2019-01-24T11:13:16.003Z,-3.90
2019-01-24T11:15:45.979Z,-4.00
2019-01-24T11:18:14.696Z,-4.10
2019-01-24T11:20:43.554Z,-4.10
2019-01-24T11:23:12.914Z,-4.00
2019-01-24T11:25:41.840Z,-4.10
2019-01-24T11:28:10.828Z,-4.20
2019-01-24T11:30:39.555Z,-4.40
2019-01-24T11:33:09.559Z,-4.30
2019-01-24T11:35:39.342Z,-4.30
2019-01-24T11:38:09.292Z,-4.30
2019-01-24T11:40:38.292Z,-4.20
2019-01-24T11:43:07.515Z,-4.20
2019-01-24T11:45:39.032Z,-4.30
2019-01-24T11:48:07.963Z,-4.40
2019-01-24T11:50:36.734Z,-4.40
2019-01-24T11:53:07.540Z,-4.30
2019-01-24T11:55:36.265Z,-4.20
2019-01-24T11:58:06.710Z,-4.30
2019-01-24T12:00:40.527Z,-4.30
2019-01-24T12:03:10.363Z,-4.20
2019-01-24T12:05:39.593Z,-4.20
2019-01-24T12:08:09.027Z,-4.20
2019-01-24T12:10:38.318Z,-4.30
2019-01-24T12:13:07.230Z,-4.40
2019-01-24T12:15:36.959Z,-4.30
2019-01-24T12:18:05.868Z,-4.20
2019-01-24T12:20:35.947Z,-4.30
2019-01-24T12:23:05.087Z,-4.30
2019-01-24T12:25:33.821Z,-4.40
2019-01-24T12:28:03.222Z,-4.30
2019-01-24T12:30:33.671Z,-4.40
2019-01-24T12:33:03.797Z,-4.40
2019-01-24T12:35:32.610Z,-4.40
2019-01-24T12:38:01.436Z,-4.20
2019-01-24T12:40:30.449Z,-4.30
2019-01-24T12:42:59.303Z,-4.30
2019-01-24T12:45:30.589Z,-4.30
2019-01-24T12:47:59.898Z,-4.40
2019-01-24T12:50:28.805Z,-4.30
2019-01-24T12:52:59.584Z,-4.30
2019-01-24T12:55:29.306Z,-4.30
2019-01-24T12:57:58.318Z,-4.30
2019-01-24T13:00:32.039Z,-4.20
2019-01-24T13:03:00.890Z,-4.20
2019-01-24T13:05:30.204Z,-4.30
2019-01-24T13:07:58.963Z,-4.30
2019-01-24T13:10:28.324Z,-4.10
2019-01-24T13:12:57.400Z,-3.90
2019-01-24T13:15:31.132Z,-3.80
2019-01-24T13:18:09.236Z,-3.80
2019-01-24T13:20:38.002Z,-3.70
2019-01-24T13:23:08.753Z,-3.50
2019-01-24T13:25:37.742Z,-3.60
2019-01-24T13:28:06.994Z,-3.50
2019-01-24T13:30:36.746Z,-3.60
2019-01-24T13:33:06.618Z,-3.60
2019-01-24T13:35:35.791Z,-3.70
2019-01-24T13:38:05.658Z,-3.80
2019-01-24T13:40:34.436Z,-3.80
2019-01-24T13:43:03.705Z,-3.80
2019-01-24T13:45:39.050Z,-3.80
2019-01-24T13:48:07.898Z,-3.80
2019-01-24T13:50:36.684Z,-3.70
2019-01-24T13:53:05.738Z,-3.70
2019-01-24T13:55:34.721Z,-3.80
2019-01-24T13:58:05.104Z,-3.80
2019-01-24T14:00:36.291Z,-3.80
2019-01-24T14:03:11.786Z,-3.70
2019-01-24T14:05:40.627Z,-3.70
2019-01-24T14:08:10.457Z,-3.70
2019-01-24T14:10:39.384Z,-3.70
2019-01-24T14:13:08.524Z,-3.70
2019-01-24T14:15:37.956Z,-3.70
2019-01-24T14:18:07.697Z,-3.70
2019-01-24T14:20:36.575Z,-3.70
2019-01-24T14:23:05.987Z,-3.70
2019-01-24T14:25:34.671Z,-3.70
2019-01-24T14:28:03.932Z,-3.70
2019-01-24T14:30:32.787Z,-3.70
2019-01-24T14:33:01.546Z,-3.70
2019-01-24T14:35:30.259Z,-3.70
2019-01-24T14:37:59.501Z,-3.70
2019-01-24T14:40:28.553Z,-3.60
2019-01-24T14:42:57.674Z,-3.60
2019-01-24T14:45:27.318Z,-3.60
2019-01-24T14:47:57.261Z,-3.70
2019-01-24T14:50:26.956Z,-3.60
2019-01-24T14:53:11.353Z,-3.70
2019-01-24T14:55:40.574Z,-3.70
2019-01-24T14:58:09.409Z,-3.70
2019-01-24T15:00:44.783Z,-3.80
2019-01-24T15:03:15.917Z,-3.80
2019-01-24T15:05:44.714Z,-3.80
2019-01-24T15:08:14.851Z,-3.90
2019-01-24T15:10:44.819Z,-3.90
2019-01-24T15:13:13.760Z,-3.90
2019-01-24T15:15:42.613Z,-3.80
2019-01-24T15:18:11.712Z,-3.70
2019-01-24T15:20:50.629Z,-3.70
2019-01-24T15:23:19.573Z,-3.70
2019-01-24T15:25:48.334Z,-3.80
2019-01-24T15:28:17.132Z,-3.90
2019-01-24T15:30:45.893Z,-3.80
2019-01-24T15:33:14.671Z,-3.90
2019-01-24T15:35:43.435Z,-3.80
2019-01-24T15:38:12.181Z,-3.90
2019-01-24T15:40:41.086Z,-3.90
2019-01-24T15:43:09.829Z,-4.00
2019-01-24T15:45:38.944Z,-3.90
2019-01-24T15:48:08.048Z,-3.90
2019-01-24T15:50:37.142Z,-4.00
2019-01-24T15:53:06.051Z,-4.00
2019-01-24T15:55:34.813Z,-3.90
2019-01-24T15:58:04.019Z,-3.90
2019-01-24T16:00:32.995Z,-3.90
2019-01-24T16:03:02.013Z,-3.90
2019-01-24T16:05:31.197Z,-3.90
2019-01-24T16:08:01.954Z,-3.80
2019-01-24T16:10:30.956Z,-3.80
2019-01-24T16:12:59.729Z,-3.80
2019-01-24T16:15:34.149Z,-3.80
2019-01-24T16:18:03.094Z,-3.70
2019-01-24T16:20:31.859Z,-3.70
2019-01-24T16:23:01.636Z,-3.80
2019-01-24T16:25:33.355Z,-3.70
2019-01-24T16:28:02.072Z,-3.70
2019-01-24T16:30:36.755Z,-3.80
2019-01-24T16:33:07.418Z,-3.80
2019-01-24T16:35:36.438Z,-3.80
2019-01-24T16:38:09.462Z,-3.80
2019-01-24T16:40:41.854Z,-3.80
2019-01-24T16:43:11.303Z,-3.80
2019-01-24T16:45:44.006Z,-3.70
2019-01-24T16:48:14.408Z,-3.80
2019-01-24T16:50:51.167Z,-3.80
2019-01-24T16:53:30.077Z,-3.80
2019-01-24T16:56:05.788Z,-3.80
2019-01-24T16:58:34.648Z,-3.80
2019-01-24T17:01:16.259Z,-3.80
2019-01-24T17:03:47.248Z,-3.80
2019-01-24T17:06:22.956Z,-3.80
2019-01-24T17:08:54.339Z,-3.70
2019-01-24T17:11:26.199Z,-3.90
2019-01-24T17:13:54.926Z,-3.80
2019-01-24T17:16:23.744Z,-3.80
2019-01-24T17:18:53.522Z,-3.90
2019-01-24T17:21:22.397Z,-3.90
2019-01-24T17:23:51.741Z,-3.90
2019-01-24T17:26:20.632Z,-3.90
2019-01-24T17:28:50.069Z,-3.80
2019-01-24T17:31:19.083Z,-3.90
2019-01-24T17:33:48.226Z,-3.80
2019-01-24T17:36:17.031Z,-4.00
2019-01-24T17:38:46.085Z,-4.00
2019-01-24T17:41:15.123Z,-4.00
2019-01-24T17:43:45.055Z,-4.00
2019-01-24T17:46:16.709Z,-4.00
2019-01-24T17:48:45.674Z,-3.90
2019-01-24T17:51:16.555Z,-4.00
2019-01-24T17:53:45.428Z,-4.00
2019-01-24T17:56:14.272Z,-4.00
2019-01-24T17:58:43.367Z,-4.00
2019-01-24T18:01:12.265Z,-3.90
2019-01-24T18:03:42.675Z,-4.00
2019-01-24T18:06:22.259Z,-4.00
2019-01-24T18:08:56.242Z,-4.10
2019-01-24T18:14:59.991Z,-4.00
2019-01-24T18:17:29.032Z,-4.00
2019-01-24T18:19:58.061Z,-4.00
2019-01-24T18:22:26.884Z,-4.10
2019-01-24T18:24:58.563Z,-4.10
2019-01-24T18:27:28.243Z,-4.10
2019-01-24T18:29:59.205Z,-4.10
2019-01-24T18:32:29.244Z,-4.10
2019-01-24T18:34:58.270Z,-4.10
2019-01-24T18:37:29.044Z,-4.10
2019-01-24T18:39:58.592Z,-4.00
2019-01-24T18:42:31.222Z,-3.90
2019-01-24T18:45:01.978Z,-3.90
2019-01-24T18:47:31.842Z,-3.90
2019-01-24T18:50:00.711Z,-3.90
2019-01-24T18:52:31.475Z,-3.90
2019-01-24T18:55:00.256Z,-3.90
2019-01-24T18:57:29.026Z,-4.00
2019-01-24T18:59:57.751Z,-3.90
2019-01-24T19:02:26.570Z,-4.00
2019-01-24T19:04:55.710Z,-3.90
2019-01-24T19:07:24.568Z,-3.90
2019-01-24T19:09:53.687Z,-3.90
2019-01-24T19:12:22.361Z,-3.90
2019-01-24T19:14:51.107Z,-3.90
2019-01-24T19:17:19.923Z,-3.90
2019-01-24T19:19:48.664Z,-4.00
2019-01-24T19:22:17.766Z,-4.00
2019-01-24T19:24:46.848Z,-4.00
2019-01-24T19:27:15.628Z,-4.00
2019-01-24T19:29:44.324Z,-4.00
2019-01-24T19:32:13.515Z,-4.00
2019-01-24T19:34:42.233Z,-4.00
2019-01-24T19:37:11.047Z,-4.00
2019-01-24T19:39:39.913Z,-4.00
2019-01-24T19:42:09.191Z,-4.00
2019-01-24T19:44:39.219Z,-4.00
2019-01-24T19:47:08.099Z,-4.00
2019-01-24T19:49:39.022Z,-3.90
2019-01-24T19:52:07.859Z,-3.90
2019-01-24T19:54:38.162Z,-3.90
2019-01-24T19:57:07.183Z,-3.80
2019-01-24T19:59:35.955Z,-3.80
2019-01-24T20:02:06.869Z,-3.90
2019-01-24T20:04:36.811Z,-3.90
2019-01-24T20:07:05.746Z,-3.90
2019-01-24T20:09:34.597Z,-3.90
2019-01-24T20:12:03.415Z,-3.80
2019-01-24T20:14:34.916Z,-3.80
2019-01-24T20:17:03.844Z,-3.90
2019-01-24T20:19:32.932Z,-3.80
2019-01-24T20:22:01.735Z,-3.80
2019-01-24T20:24:30.900Z,-3.80
2019-01-24T20:27:02.882Z,-3.80
2019-01-24T20:29:31.659Z,-3.80
2019-01-24T20:32:00.742Z,-3.80
2019-01-24T20:34:29.571Z,-3.80
2019-01-24T20:36:58.381Z,-3.80
2019-01-24T20:39:27.411Z,-3.80
2019-01-24T20:41:56.201Z,-3.90
2019-01-24T20:44:26.024Z,-3.80
2019-01-24T20:46:54.791Z,-3.70
2019-01-24T20:49:25.561Z,-3.70
2019-01-24T20:51:54.311Z,-3.80
2019-01-24T20:54:22.976Z,-3.80
2019-01-24T20:56:51.999Z,-3.80
2019-01-24T20:59:21.210Z,-3.80
2019-01-24T21:01:49.977Z,-3.70
2019-01-24T21:04:18.757Z,-3.80
2019-01-24T21:06:47.430Z,-3.80
2019-01-24T21:09:16.132Z,-3.80
2019-01-24T21:11:45.294Z,-3.80
2019-01-24T21:14:14.063Z,-3.80
2019-01-24T21:16:42.850Z,-3.70
2019-01-24T21:19:11.951Z,-3.70
2019-01-24T21:21:40.706Z,-3.70
2019-01-24T21:24:09.597Z,-3.70
2019-01-24T21:26:38.262Z,-3.70
2019-01-24T21:29:07.402Z,-3.80
2019-01-24T21:31:37.355Z,-3.80
2019-01-24T21:34:06.194Z,-3.80
2019-01-24T21:36:35.406Z,-3.70
2019-01-24T21:39:08.849Z,-3.60
2019-01-24T21:41:56.823Z,-3.60
2019-01-24T21:44:26.759Z,-3.60
2019-01-24T21:46:55.572Z,-3.60
2019-01-24T21:49:24.649Z,-3.70
2019-01-24T21:51:53.701Z,-3.60
2019-01-24T21:57:16.713Z,-3.70
2019-01-24T21:59:45.478Z,-3.70
2019-01-24T22:02:15.190Z,-3.70
2019-01-24T22:04:43.929Z,-3.70
2019-01-24T22:07:12.691Z,-3.70
2019-01-24T22:09:41.792Z,-3.70
2019-01-24T22:12:10.608Z,-3.70
2019-01-24T22:14:39.370Z,-3.60
2019-01-24T22:17:08.455Z,-3.70
2019-01-24T22:19:37.291Z,-3.70
2019-01-24T22:22:06.187Z,-3.70
2019-01-24T22:24:35.231Z,-3.70
2019-01-24T22:27:04.178Z,-3.60
2019-01-24T22:29:32.893Z,-3.70
2019-01-24T22:32:01.625Z,-3.60
2019-01-24T22:34:31.356Z,-3.60
2019-01-24T22:37:00.146Z,-3.70
2019-01-24T22:39:28.918Z,-3.70
2019-01-24T22:41:57.626Z,-3.80
2019-01-24T22:44:27.425Z,-3.70
2019-01-24T22:46:57.711Z,-3.60
2019-01-24T22:49:26.489Z,-3.60
2019-01-24T22:51:55.173Z,-3.60
2019-01-24T22:54:23.879Z,-3.60
2019-01-24T22:56:56.721Z,-3.60
2019-01-24T22:59:25.447Z,-3.60
2019-01-24T23:02:09.516Z,-3.60
2019-01-24T23:04:38.552Z,-3.70
2019-01-24T23:07:07.567Z,-3.80
2019-01-24T23:09:36.259Z,-3.80
2019-01-24T23:12:05.423Z,-3.80
2019-01-24T23:14:34.175Z,-3.80
2019-01-24T23:17:03.063Z,-3.80
2019-01-24T23:19:31.828Z,-3.80
2019-01-24T23:22:00.611Z,-3.80
2019-01-24T23:24:30.412Z,-3.80
2019-01-24T23:27:00.146Z,-3.70
2019-01-24T23:29:28.910Z,-3.70
2019-01-24T23:31:57.593Z,-3.70
2019-01-24T23:34:26.319Z,-3.70
2019-01-24T23:36:55.079Z,-3.80
2019-01-24T23:39:23.857Z,-3.80
2019-01-24T23:41:52.569Z,-3.80
2019-01-24T23:44:21.385Z,-3.80
2019-01-24T23:47:09.627Z,-3.90
2019-01-24T23:49:39.104Z,-3.90
2019-01-24T23:52:08.308Z,-3.90
2019-01-24T23:54:37.101Z,-3.90
2019-01-24T23:57:06.124Z,-3.90
2019-01-24T23:59:35.204Z,-3.90
